createdAt,value
2023-04-25T00:03:20.111Z,99779.81
2023-04-25T00:08:24.417Z,99773.16
2023-04-25T00:13:27.859Z,99772.72
2023-04-25T00:18:30.828Z,99764.19
2023-04-25T00:23:33.721Z,99758.91
2023-04-25T00:28:36.640Z,99757.47
2023-04-25T00:33:39.525Z,99764.38
2023-04-25T00:38:42.498Z,99758.56
2023-04-25T00:43:47.255Z,99753.94
2023-04-25T00:48:50.474Z,99754.31
2023-04-25T00:53:54.069Z,99750.50
2023-04-25T00:59:16.669Z,99737.41
2023-04-25T01:04:19.858Z,99734.34
2023-04-25T01:09:24.152Z,99734.34
2023-04-25T01:14:27.373Z,99727.78
2023-04-25T01:19:30.498Z,99730.50
2023-04-25T01:24:34.237Z,99719.31
2023-04-25T01:29:37.566Z,99707.44
2023-04-25T01:34:40.532Z,99706.81
2023-04-25T01:40:02.142Z,99701.03
2023-04-25T01:45:07.678Z,99715.28
2023-04-25T01:50:12.415Z,99724.84
2023-04-25T01:55:15.768Z,99722.06
2023-04-25T02:00:35.492Z,99725.16
2023-04-25T02:05:41.618Z,99716.22
2023-04-25T02:10:48.146Z,99724.00
2023-04-25T02:15:54.637Z,99716.63
2023-04-25T02:21:16.386Z,99715.56
2023-04-25T02:26:20.079Z,99719.75
2023-04-25T02:31:23.056Z,99713.84
2023-04-25T02:36:27.888Z,99706.81
2023-04-25T02:41:31.016Z,99724.50
2023-04-25T02:46:39.278Z,99729.13
2023-04-25T02:51:42.947Z,99724.16
2023-04-25T02:56:46.094Z,99724.13
2023-04-25T03:01:56.385Z,99722.53
2023-04-25T03:07:00.745Z,99720.25
2023-04-25T03:12:04.088Z,99715.63
2023-04-25T03:17:09.109Z,99718.75
2023-04-25T03:22:30.886Z,99711.06
2023-04-25T03:27:34.061Z,99703.28
2023-04-25T03:32:37.184Z,99705.09
2023-04-25T03:37:41.805Z,99705.44
2023-04-25T03:43:03.279Z,99709.97
2023-04-25T03:48:06.471Z,99708.75
2023-04-25T03:53:09.970Z,99707.88
2023-04-25T03:58:32.629Z,99705.88
2023-04-25T04:03:37.571Z,99696.88
2023-04-25T04:08:41.811Z,99698.00
2023-04-25T04:13:46.388Z,99690.25
2023-04-25T04:18:49.459Z,99693.56
2023-04-25T04:23:53.757Z,99703.53
2023-04-25T04:29:21.971Z,99701.81
2023-04-25T04:34:36.348Z,99690.94
2023-04-25T04:39:39.686Z,99686.56
2023-04-25T04:45:07.783Z,99673.13
2023-04-25T04:50:49.213Z,99668.66
2023-04-25T04:56:01.918Z,99662.94
2023-04-25T05:01:23.751Z,99672.53
2023-04-25T05:06:49.872Z,99680.19
2023-04-25T05:11:53.322Z,99667.13
2023-04-25T05:17:25.331Z,99673.19
2023-04-25T05:22:48.553Z,99678.31
2023-04-25T05:28:14.791Z,99657.28
2023-04-25T05:33:28.646Z,99663.50
2023-04-25T05:38:34.523Z,99644.16
2023-04-25T05:43:48.788Z,99640.31
2023-04-25T05:49:01.929Z,99630.00
2023-04-25T05:54:23.695Z,99613.84
2023-04-25T05:59:27.037Z,99618.59
2023-04-25T06:04:30.504Z,99609.06
2023-04-25T06:09:33.643Z,99607.25
2023-04-25T06:14:36.786Z,99612.69
2023-04-25T06:19:40.082Z,99602.19
2023-04-25T06:24:43.285Z,99605.25
2023-04-25T06:29:46.371Z,99610.91
2023-04-25T06:34:50.587Z,99603.16
2023-04-25T06:39:53.664Z,99591.53
2023-04-25T06:44:57.201Z,99582.31
2023-04-25T06:50:00.581Z,99574.78
2023-04-25T06:55:06.225Z,99584.59
2023-04-25T07:00:35.568Z,99587.31
2023-04-25T07:05:38.786Z,99584.06
2023-04-25T07:10:42.160Z,99578.41
2023-04-25T07:15:45.117Z,99581.22
2023-04-25T07:20:48.496Z,99567.16
2023-04-25T07:25:51.608Z,99563.69
2023-04-25T07:30:59.307Z,99541.63
2023-04-25T07:36:02.255Z,99528.50
2023-04-25T07:41:05.480Z,99519.34
2023-04-25T07:46:08.705Z,99507.91
2023-04-25T07:51:12.802Z,99510.63
2023-04-25T07:56:16.457Z,99496.13
2023-04-25T08:01:22.826Z,99490.22
2023-04-25T08:06:38.397Z,99473.63
2023-04-25T08:11:46.357Z,99460.19
2023-04-25T08:16:51.955Z,99457.91
2023-04-25T08:21:57.763Z,99446.22
2023-04-25T08:27:08.894Z,99446.59
2023-04-25T08:32:12.482Z,99440.94
2023-04-25T08:37:22.108Z,99434.38
2023-04-25T08:42:39.546Z,99418.88
2023-04-25T08:47:44.555Z,99408.59
2023-04-25T08:52:49.332Z,99401.22
2023-04-25T08:57:53.763Z,99392.34
2023-04-25T09:02:58.194Z,99387.50
2023-04-25T09:08:06.058Z,99372.38
2023-04-25T09:13:26.915Z,99363.34
2023-04-25T09:18:50.723Z,99347.09
2023-04-25T09:23:54.899Z,99330.81
2023-04-25T09:29:08.484Z,99334.81
2023-04-25T09:34:16.914Z,99330.25
2023-04-25T09:39:29.854Z,99315.47
2023-04-25T09:44:46.894Z,99305.69
2023-04-25T09:49:53.061Z,99304.84
2023-04-25T09:54:57.466Z,99302.66
2023-04-25T10:00:13.260Z,99282.09
2023-04-25T10:05:19.868Z,99273.75
2023-04-25T10:10:41.639Z,99259.00
2023-04-25T10:15:44.970Z,99238.00
2023-04-25T10:20:47.898Z,99245.81
2023-04-25T10:26:13.988Z,99228.91
2023-04-25T10:31:18.677Z,99227.06
2023-04-25T10:36:28.378Z,99211.91
2023-04-25T10:41:31.341Z,99215.03
2023-04-25T10:46:36.165Z,99192.50
2023-04-25T10:51:51.660Z,99177.91
2023-04-25T10:56:59.892Z,99177.78
2023-04-25T11:02:14.452Z,99164.03
2023-04-25T11:13:05.285Z,99133.41
2023-04-25T11:18:28.406Z,99123.34
2023-04-25T11:23:31.977Z,99113.16
2023-04-25T11:28:34.859Z,99102.97
2023-04-25T11:33:38.032Z,99093.78
2023-04-25T11:38:41.613Z,99076.38
2023-04-25T11:43:45.004Z,99073.97
2023-04-25T11:48:49.219Z,99064.75
2023-04-25T11:53:52.435Z,99055.22
2023-04-25T11:59:14.644Z,99037.03
2023-04-25T12:04:22.893Z,99031.38
2023-04-25T12:09:31.677Z,99024.84
2023-04-25T12:14:36.960Z,98998.22
2023-04-25T12:19:44.917Z,99004.47
2023-04-25T12:25:07.120Z,98990.94
2023-04-25T12:30:11.797Z,98988.97
2023-04-25T12:35:14.629Z,98978.03
2023-04-25T12:40:17.780Z,98972.31
2023-04-25T12:45:20.510Z,98963.44
2023-04-25T12:50:23.442Z,98958.59
2023-04-25T12:55:26.601Z,98957.84
2023-04-25T13:00:30.815Z,98958.13
2023-04-25T13:05:33.628Z,98948.03
2023-04-25T13:10:37.457Z,98932.78
2023-04-25T13:15:40.754Z,98932.25
2023-04-25T13:20:43.683Z,98928.38
2023-04-25T13:25:46.509Z,98925.53
2023-04-25T13:30:49.384Z,98910.19
2023-04-25T13:35:56.619Z,98904.03
2023-04-25T13:40:59.670Z,98903.94
2023-04-25T13:46:02.593Z,98900.00
2023-04-25T13:51:05.699Z,98902.72
2023-04-25T13:56:08.595Z,98877.66
2023-04-25T14:01:12.006Z,98877.78
2023-04-25T14:06:14.950Z,98878.16
2023-04-25T14:11:19.452Z,98877.53
2023-04-25T14:16:24.121Z,98864.06
2023-04-25T14:21:45.242Z,98861.72
2023-04-25T14:26:48.155Z,98847.88
2023-04-25T14:31:51.144Z,98858.91
2023-04-25T14:36:54.024Z,98851.84
2023-04-25T14:41:57.556Z,98838.38
2023-04-25T14:47:00.745Z,98840.00
2023-04-25T14:52:04.346Z,98834.41
2023-04-25T14:57:07.540Z,98834.78
2023-04-25T15:02:10.781Z,98821.91
2023-04-25T15:07:13.455Z,98817.66
2023-04-25T15:12:16.351Z,98817.78
2023-04-25T15:17:19.215Z,98807.84
2023-04-25T15:22:22.392Z,98805.97
2023-04-25T15:27:25.253Z,98789.31
2023-04-25T15:32:28.181Z,98795.19
2023-04-25T15:37:31.795Z,98782.78
2023-04-25T15:42:34.725Z,98790.53
2023-04-25T15:47:39.022Z,98774.09
2023-04-25T15:52:43.924Z,98749.69
2023-04-25T15:57:47.969Z,98756.94
2023-04-25T16:02:51.803Z,98749.38
2023-04-25T16:07:55.002Z,98753.84
2023-04-25T16:12:58.000Z,98764.66
2023-04-25T16:18:00.961Z,98759.81
2023-04-25T16:23:03.920Z,98766.09
2023-04-25T16:28:06.984Z,98757.66
2023-04-25T16:33:10.203Z,98760.28
2023-04-25T16:38:31.466Z,98754.25
2023-04-25T16:43:34.650Z,98760.59
2023-04-25T16:48:37.531Z,98739.72
2023-04-25T16:53:40.425Z,98764.84
2023-04-25T16:58:43.548Z,98769.81
2023-04-25T17:03:47.865Z,98771.88
2023-04-25T17:08:51.482Z,98761.41
2023-04-25T17:13:54.744Z,98757.81
2023-04-25T17:19:16.452Z,98743.25
2023-04-25T17:24:22.087Z,98745.31
2023-04-25T17:29:25.148Z,98740.66
2023-04-25T17:34:48.326Z,98741.22
2023-04-25T17:40:12.350Z,98735.47
2023-04-25T17:45:15.412Z,98727.81
2023-04-25T17:50:18.732Z,98723.38
2023-04-25T17:55:21.706Z,98730.72
2023-04-25T18:00:25.011Z,98725.13
2023-04-25T18:05:30.468Z,98708.25
2023-04-25T18:10:34.552Z,98701.34
2023-04-25T18:15:37.586Z,98712.28
2023-04-25T18:20:44.723Z,98699.53
2023-04-25T18:25:52.169Z,98696.16
2023-04-25T18:30:55.154Z,98693.00
2023-04-25T18:35:59.809Z,98698.75
2023-04-25T18:41:20.978Z,98698.31
2023-04-25T18:46:26.116Z,98695.19
2023-04-25T18:51:32.574Z,98681.53
2023-04-25T18:56:35.949Z,98685.78
2023-04-25T19:01:57.713Z,98675.91
2023-04-25T19:07:01.406Z,98675.47
2023-04-25T19:12:05.272Z,98661.56
2023-04-25T19:17:08.237Z,98659.72
2023-04-25T19:22:11.821Z,98653.31
2023-04-25T19:27:15.149Z,98635.91
2023-04-25T19:32:18.004Z,98651.38
2023-04-25T19:37:21.064Z,98655.31
2023-04-25T19:42:24.291Z,98653.31
2023-04-25T19:47:45.521Z,98649.53
2023-04-25T19:52:48.506Z,98642.19
2023-04-25T19:58:10.006Z,98643.06
2023-04-25T20:03:13.083Z,98645.56
2023-04-25T20:08:16.463Z,98635.44
2023-04-25T20:13:19.312Z,98636.63
2023-04-25T20:18:22.214Z,98637.28
2023-04-25T20:23:25.219Z,98639.34
2023-04-25T20:28:46.911Z,98621.06
2023-04-25T20:33:49.849Z,98634.50
2023-04-25T20:38:53.213Z,98625.19
2023-04-25T20:43:57.118Z,98629.19
2023-04-25T20:49:01.739Z,98617.53
2023-04-25T20:54:04.684Z,98616.00
2023-04-25T20:59:07.752Z,98623.78
2023-04-25T21:04:11.065Z,98616.97
2023-04-25T21:09:14.491Z,98615.66
2023-04-25T21:14:18.767Z,98609.81
2023-04-25T21:19:21.713Z,98605.63
2023-04-25T21:24:27.094Z,98596.88
2023-04-25T21:29:30.038Z,98594.06
2023-04-25T21:34:32.944Z,98594.44
2023-04-25T21:39:35.824Z,98599.53
2023-04-25T21:44:38.761Z,98587.34
2023-04-25T21:49:41.732Z,98582.38
2023-04-25T21:54:44.785Z,98576.41
2023-04-25T21:59:48.270Z,98570.00
2023-04-25T22:04:52.656Z,98577.22
2023-04-25T22:09:56.058Z,98574.66
2023-04-25T22:14:59.839Z,98564.78
2023-04-25T22:20:06.032Z,98554.16
2023-04-25T22:25:10.157Z,98554.69
2023-04-25T22:30:13.618Z,98558.69
2023-04-25T22:35:16.867Z,98544.88
2023-04-25T22:40:20.085Z,98533.88
2023-04-25T22:45:23.036Z,98541.09
2023-04-25T22:50:27.248Z,98534.31
2023-04-25T22:55:30.252Z,98533.56
2023-04-25T23:00:34.608Z,98524.81
2023-04-25T23:05:38.556Z,98514.91
2023-04-25T23:11:00.401Z,98519.31
2023-04-25T23:16:22.400Z,98510.69
2023-04-25T23:21:25.635Z,98519.41
2023-04-25T23:26:28.437Z,98513.38
2023-04-25T23:31:31.414Z,98519.53
2023-04-25T23:36:34.578Z,98528.28
2023-04-25T23:41:37.987Z,98536.66
2023-04-25T23:46:41.365Z,98528.56
2023-04-25T23:51:44.435Z,98533.78
2023-04-25T23:56:47.359Z,98524.94
